Terminal Aerodrome Forecast
Issued by NWS Twin Cities, MN

Home | Current Version | Previous Version | Graphics & Text | Print | Product List | Glossary On
Versions: 1 2 3 4 5 6 7 8 9 10 11 12 13 14 15 16 17 18 19 20 21 22 23 24
867
FTUS43 KMPX 200838 AAA
TAFMSP
TAF AMD
KMSP 200838Z 2009/2112 07012KT P6SM BKN080 OVC150
     FM201300 06012G20KT 6SM -RA BR SCT025 OVC040
     FM201600 06012G20KT 4SM RA BR SCT010 OVC020
     FM202000 07014G21KT 4SM -RA BR OVC008
     FM210200 03008KT 3SM -DZ BR OVC005
     FM210600 34005KT 2SM -DZ BR OVC005
     FM210900 28008KT 6SM BR VCSH BKN007 OVC012=

USA.gov is the U.S. government's official web portal to all federal, state and local government web resources and services.